createdAt,value
2023-02-19T00:01:59.634Z,100.00
2023-02-19T00:04:27.860Z,100.00
2023-02-19T00:06:55.777Z,100.00
2023-02-19T00:09:23.889Z,100.00
2023-02-19T00:11:53.277Z,100.00
2023-02-19T00:14:22.417Z,100.00
2023-02-19T00:16:50.641Z,100.00
2023-02-19T00:19:21.847Z,100.00
2023-02-19T00:21:51.849Z,100.00
2023-02-19T00:24:22.762Z,100.00
2023-02-19T00:26:51.033Z,100.00
2023-02-19T00:29:21.354Z,100.00
2023-02-19T00:31:51.430Z,100.00
2023-02-19T00:34:20.903Z,100.00
2023-02-19T00:36:48.875Z,100.00
2023-02-19T00:39:18.702Z,100.00
2023-02-19T00:41:47.092Z,100.00
2023-02-19T00:44:15.799Z,100.00
2023-02-19T00:46:45.025Z,100.00
2023-02-19T00:49:18.263Z,100.00
2023-02-19T00:51:51.050Z,100.00
2023-02-19T00:54:20.096Z,100.00
2023-02-19T00:56:48.394Z,100.00
2023-02-19T00:59:16.636Z,100.00
2023-02-19T01:01:45.570Z,100.00
2023-02-19T01:04:13.694Z,100.00
2023-02-19T01:06:42.262Z,100.00
2023-02-19T01:09:16.983Z,100.00
2023-02-19T01:11:47.058Z,100.00
2023-02-19T01:14:17.686Z,100.00
2023-02-19T01:16:46.909Z,100.00
2023-02-19T01:19:14.864Z,100.00
2023-02-19T01:21:53.546Z,100.00
2023-02-19T01:24:23.003Z,100.00
2023-02-19T01:26:52.061Z,100.00
2023-02-19T01:29:19.960Z,100.00
2023-02-19T01:31:48.204Z,100.00
2023-02-19T01:34:16.361Z,100.00
2023-02-19T01:36:44.323Z,100.00
2023-02-19T01:39:15.692Z,100.00
2023-02-19T01:41:46.300Z,100.00
2023-02-19T01:44:47.111Z,100.00
2023-02-19T01:47:17.339Z,100.00
2023-02-19T01:49:49.036Z,100.00
2023-02-19T01:52:20.797Z,100.00
2023-02-19T01:54:51.192Z,100.00
2023-02-19T01:57:23.252Z,100.00
2023-02-19T01:59:55.227Z,100.00
2023-02-19T02:02:25.138Z,100.00
2023-02-19T02:04:53.538Z,100.00
2023-02-19T02:07:39.252Z,100.00
2023-02-19T02:10:22.869Z,100.00
2023-02-19T02:12:57.519Z,100.00
2023-02-19T02:15:28.085Z,100.00
2023-02-19T02:18:02.190Z,100.00
2023-02-19T02:20:41.017Z,100.00
2023-02-19T02:23:13.521Z,100.00
2023-02-19T02:26:02.273Z,100.00
2023-02-19T02:28:54.124Z,100.00
2023-02-19T02:31:29.845Z,100.00
2023-02-19T02:34:02.890Z,100.00
2023-02-19T02:36:35.002Z,100.00
2023-02-19T02:39:05.209Z,100.00
2023-02-19T02:41:34.435Z,100.00
2023-02-19T02:44:04.235Z,100.00
2023-02-19T02:46:38.037Z,100.00
2023-02-19T02:49:16.135Z,100.00
2023-02-19T02:51:48.642Z,100.00
2023-02-19T02:54:38.872Z,100.00
2023-02-19T02:57:09.356Z,100.00
2023-02-19T02:59:40.904Z,100.00
2023-02-19T03:02:14.760Z,100.00
2023-02-19T03:05:09.278Z,100.00
2023-02-19T03:07:47.688Z,100.00
2023-02-19T03:10:20.199Z,100.00
2023-02-19T03:13:09.900Z,100.00
2023-02-19T03:16:02.531Z,100.00
2023-02-19T03:18:52.361Z,100.00
2023-02-19T03:21:24.322Z,100.00
2023-02-19T03:24:10.885Z,100.00
2023-02-19T03:26:40.237Z,100.00
2023-02-19T03:29:29.047Z,100.00
2023-02-19T03:32:00.603Z,100.00
2023-02-19T03:34:35.908Z,100.00
2023-02-19T03:37:11.703Z,100.00
2023-02-19T03:39:44.501Z,100.00
2023-02-19T03:42:21.020Z,100.00
2023-02-19T03:45:02.239Z,100.00
2023-02-19T03:47:32.663Z,100.00
2023-02-19T03:50:11.739Z,100.00
2023-02-19T03:52:44.045Z,100.00
2023-02-19T03:55:17.609Z,100.00
2023-02-19T03:57:52.728Z,100.00
2023-02-19T04:00:28.510Z,100.00
2023-02-19T04:03:03.852Z,100.00
2023-02-19T04:05:36.895Z,100.00
2023-02-19T04:08:10.284Z,100.00
2023-02-19T04:10:39.819Z,100.00
2023-02-19T04:13:12.799Z,100.00
2023-02-19T04:15:44.051Z,100.00
2023-02-19T04:18:16.744Z,100.00
2023-02-19T04:20:48.862Z,100.00
2023-02-19T04:23:20.636Z,100.00
2023-02-19T04:25:52.111Z,100.00
2023-02-19T04:28:20.110Z,100.00
2023-02-19T04:30:48.126Z,100.00
2023-02-19T04:33:16.188Z,100.00
2023-02-19T04:35:44.039Z,100.00
2023-02-19T04:38:14.484Z,100.00
2023-02-19T04:40:42.472Z,100.00
2023-02-19T04:43:10.354Z,100.00
2023-02-19T04:45:39.064Z,100.00
2023-02-19T04:48:07.140Z,100.00
2023-02-19T04:50:35.032Z,100.00
2023-02-19T04:53:02.885Z,100.00
2023-02-19T04:55:32.106Z,100.00
2023-02-19T04:57:59.961Z,100.00
2023-02-19T05:00:27.844Z,100.00
2023-02-19T05:02:55.709Z,100.00
2023-02-19T05:05:23.574Z,100.00
2023-02-19T05:07:51.434Z,100.00
2023-02-19T05:10:19.378Z,100.00
2023-02-19T05:12:48.612Z,100.00
2023-02-19T05:15:16.631Z,100.00
2023-02-19T05:17:44.474Z,100.00
2023-02-19T05:20:17.236Z,100.00
2023-02-19T05:22:45.167Z,100.00
2023-02-19T05:25:13.002Z,100.00
2023-02-19T05:27:41.168Z,100.00
2023-02-19T05:30:12.329Z,100.00
2023-02-19T05:32:40.388Z,100.00
2023-02-19T05:35:08.302Z,100.00
2023-02-19T05:37:36.194Z,100.00
2023-02-19T05:40:04.241Z,100.00
2023-02-19T05:42:32.083Z,100.00
2023-02-19T05:44:59.910Z,100.00
2023-02-19T05:47:29.223Z,100.00
2023-02-19T05:49:57.054Z,100.00
2023-02-19T05:52:24.958Z,100.00
2023-02-19T05:54:52.898Z,100.00
2023-02-19T05:57:21.641Z,100.00
2023-02-19T05:59:49.585Z,100.00
2023-02-19T06:02:17.641Z,100.00
2023-02-19T06:04:46.886Z,100.00
2023-02-19T06:07:14.745Z,100.00
2023-02-19T06:09:42.586Z,100.00
2023-02-19T06:12:10.425Z,100.00
2023-02-19T06:14:38.326Z,100.00
2023-02-19T06:17:06.196Z,100.00
2023-02-19T06:19:34.090Z,100.00
2023-02-19T06:22:03.598Z,100.00
2023-02-19T06:24:34.675Z,100.00
2023-02-19T06:27:02.946Z,100.00
2023-02-19T06:29:32.534Z,100.00
2023-02-19T06:32:00.562Z,100.00
2023-02-19T06:34:28.538Z,100.00
2023-02-19T06:36:57.896Z,100.00
2023-02-19T06:39:27.810Z,100.00
2023-02-19T06:41:59.051Z,100.00
2023-02-19T06:44:26.963Z,100.00
2023-02-19T06:46:56.688Z,100.00
2023-02-19T06:49:25.071Z,100.00
2023-02-19T06:51:52.948Z,100.00
2023-02-19T06:54:20.816Z,100.00
2023-02-19T06:56:50.110Z,100.00
2023-02-19T06:59:17.994Z,100.00
2023-02-19T07:01:46.482Z,100.00
2023-02-19T07:04:16.033Z,100.00
2023-02-19T07:06:44.557Z,100.00
2023-02-19T07:09:12.666Z,100.00
2023-02-19T07:11:41.261Z,100.00
2023-02-19T07:14:15.741Z,100.00
2023-02-19T07:16:44.669Z,100.00
2023-02-19T07:19:13.050Z,100.00
2023-02-19T07:21:42.176Z,100.00
2023-02-19T07:24:11.205Z,100.00
2023-02-19T07:26:39.050Z,100.00
2023-02-19T07:29:07.591Z,100.00
2023-02-19T07:31:37.013Z,100.00
2023-02-19T07:34:04.921Z,100.00
2023-02-19T07:36:32.813Z,100.00
2023-02-19T07:39:01.392Z,100.00
2023-02-19T07:41:29.574Z,100.00
2023-02-19T07:43:57.597Z,100.00
2023-02-19T07:46:26.260Z,100.00
2023-02-19T07:48:55.551Z,98.71
2023-02-19T07:51:23.927Z,98.71
2023-02-19T07:53:51.946Z,97.91
2023-02-19T07:56:20.694Z,97.84
2023-02-19T07:58:48.640Z,96.43
2023-02-19T08:01:18.566Z,96.95
2023-02-19T08:03:47.054Z,96.04
2023-02-19T08:06:17.415Z,95.24
2023-02-19T08:08:45.397Z,95.07
2023-02-19T08:11:30.578Z,94.59
2023-02-19T08:13:58.512Z,93.26
2023-02-19T08:16:42.144Z,93.11
2023-02-19T08:19:11.157Z,91.49
2023-02-19T08:21:40.461Z,90.79
2023-02-19T08:24:08.543Z,90.09
2023-02-19T08:26:37.012Z,88.76
2023-02-19T08:29:05.032Z,87.87
2023-02-19T08:31:33.229Z,87.19
2023-02-19T08:34:01.348Z,85.65
2023-02-19T08:36:29.273Z,84.52
2023-02-19T08:38:58.645Z,84.38
2023-02-19T08:41:26.510Z,84.16
2023-02-19T08:43:54.425Z,83.61
2023-02-19T08:46:22.798Z,83.63
2023-02-19T08:48:51.036Z,83.37
2023-02-19T08:51:19.035Z,83.23
2023-02-19T08:53:47.176Z,82.40
2023-02-19T08:56:18.607Z,81.58
2023-02-19T08:58:47.008Z,79.41
2023-02-19T09:01:18.482Z,77.60
2023-02-19T09:03:46.762Z,78.94
2023-02-19T09:06:17.618Z,78.99
2023-02-19T09:08:45.794Z,79.58
2023-02-19T09:11:14.076Z,79.16
2023-02-19T09:13:43.900Z,79.13
2023-02-19T09:16:11.891Z,78.08
2023-02-19T09:18:39.745Z,77.74
2023-02-19T09:21:07.854Z,77.85
2023-02-19T09:23:36.955Z,77.79
2023-02-19T09:26:08.597Z,78.46
2023-02-19T09:28:38.372Z,79.39
2023-02-19T09:31:09.130Z,79.27
2023-02-19T09:33:37.414Z,79.29
2023-02-19T09:36:05.734Z,81.66
2023-02-19T09:38:33.748Z,80.84
2023-02-19T09:41:08.983Z,80.00
2023-02-19T09:43:38.154Z,80.02
2023-02-19T09:46:17.475Z,79.54
2023-02-19T09:48:45.414Z,78.80
2023-02-19T09:51:15.164Z,75.75
2023-02-19T09:53:46.928Z,73.25
2023-02-19T09:56:14.905Z,72.02
2023-02-19T09:58:49.209Z,69.89
2023-02-19T10:01:19.950Z,66.33
2023-02-19T10:03:49.943Z,66.11
2023-02-19T10:06:21.875Z,65.49
2023-02-19T10:08:51.979Z,65.51
2023-02-19T10:11:20.713Z,64.78
2023-02-19T10:13:52.881Z,61.67
2023-02-19T10:16:27.493Z,62.39
2023-02-19T10:18:56.570Z,62.19
2023-02-19T10:21:27.209Z,61.14
2023-02-19T10:23:58.997Z,59.95
2023-02-19T10:26:27.584Z,59.77
2023-02-19T10:28:56.387Z,58.34
2023-02-19T10:31:27.021Z,58.68
2023-02-19T10:33:56.604Z,59.12
2023-02-19T10:36:31.871Z,59.24
2023-02-19T10:39:01.587Z,58.69
2023-02-19T10:41:31.006Z,58.12
2023-02-19T10:44:06.624Z,57.64
2023-02-19T10:46:39.475Z,57.60
2023-02-19T10:49:20.837Z,57.15
2023-02-19T10:51:49.091Z,57.00
2023-02-19T10:54:20.261Z,55.92
2023-02-19T10:56:48.280Z,55.98
2023-02-19T10:59:24.597Z,55.76
2023-02-19T11:01:58.727Z,55.12
2023-02-19T11:04:29.195Z,54.62
2023-02-19T11:06:57.573Z,54.38
2023-02-19T11:09:29.240Z,55.12
2023-02-19T11:11:59.479Z,55.37
2023-02-19T11:14:30.942Z,54.57
2023-02-19T11:17:03.919Z,54.83
2023-02-19T11:19:37.740Z,54.26
2023-02-19T11:22:21.419Z,53.52
2023-02-19T11:24:53.861Z,53.23
2023-02-19T11:27:25.823Z,52.84
2023-02-19T11:29:53.714Z,52.01
2023-02-19T11:32:29.442Z,52.63
2023-02-19T11:35:17.870Z,52.09
2023-02-19T11:37:57.132Z,51.94
2023-02-19T11:40:44.047Z,51.20
2023-02-19T11:43:29.462Z,50.74
2023-02-19T11:46:04.556Z,51.54
2023-02-19T11:48:43.655Z,51.31
2023-02-19T11:51:35.393Z,51.24
2023-02-19T11:54:20.705Z,50.72
2023-02-19T11:56:54.957Z,50.15
2023-02-19T11:59:31.489Z,50.03
2023-02-19T12:02:28.952Z,49.66
2023-02-19T12:05:34.986Z,48.76
2023-02-19T12:08:43.281Z,48.30
2023-02-19T12:11:42.086Z,48.24
2023-02-19T12:14:39.642Z,47.73
2023-02-19T12:17:15.297Z,47.07
2023-02-19T12:20:05.913Z,46.40
2023-02-19T12:22:44.990Z,46.90
2023-02-19T12:25:39.121Z,46.48
2023-02-19T12:28:21.550Z,46.10
2023-02-19T12:31:16.841Z,46.81
2023-02-19T12:34:09.194Z,46.35
2023-02-19T12:36:46.868Z,46.07
2023-02-19T12:39:28.968Z,46.23
2023-02-19T12:42:04.792Z,45.25
2023-02-19T12:44:44.217Z,45.48
2023-02-19T12:47:20.709Z,45.34
2023-02-19T12:49:51.997Z,45.49
2023-02-19T12:52:26.219Z,45.89
2023-02-19T12:55:00.859Z,46.19
2023-02-19T12:57:36.026Z,46.27
2023-02-19T13:00:12.466Z,45.76
2023-02-19T13:02:46.408Z,45.78
2023-02-19T13:05:24.162Z,45.27
2023-02-19T13:08:01.560Z,44.72
2023-02-19T13:10:40.455Z,43.69
2023-02-19T13:13:17.386Z,43.23
2023-02-19T13:15:51.720Z,43.34
2023-02-19T13:18:23.632Z,42.84
2023-02-19T13:20:55.341Z,42.17
2023-02-19T13:23:45.653Z,41.74
2023-02-19T13:26:39.162Z,42.43
2023-02-19T13:29:20.874Z,42.57
2023-02-19T13:32:11.655Z,42.16
2023-02-19T13:34:54.840Z,41.89
2023-02-19T13:37:23.925Z,42.21
2023-02-19T13:39:54.971Z,42.00
2023-02-19T13:42:29.478Z,42.38
2023-02-19T13:45:01.858Z,42.10
2023-02-19T13:48:00.869Z,42.00
2023-02-19T13:50:30.417Z,41.56
2023-02-19T13:52:59.138Z,41.42
2023-02-19T13:55:51.911Z,41.82
2023-02-19T13:58:59.316Z,42.90
2023-02-19T14:02:11.854Z,43.45
2023-02-19T14:05:00.090Z,43.66
2023-02-19T14:07:53.206Z,44.82
2023-02-19T14:11:07.958Z,44.92
2023-02-19T14:14:06.809Z,44.97
2023-02-19T14:17:06.598Z,45.33
2023-02-19T14:20:01.685Z,45.20
2023-02-19T14:23:03.920Z,45.49
2023-02-19T14:25:45.218Z,45.54
2023-02-19T14:28:36.326Z,46.06
2023-02-19T14:31:17.616Z,46.16
2023-02-19T14:33:48.820Z,45.25
2023-02-19T14:36:46.665Z,45.34
2023-02-19T14:39:18.577Z,44.79
2023-02-19T14:41:49.310Z,44.32
2023-02-19T14:44:21.062Z,44.81
2023-02-19T14:46:56.220Z,44.82
2023-02-19T14:49:31.189Z,45.26
2023-02-19T14:52:07.893Z,45.22
2023-02-19T14:54:46.612Z,45.46
2023-02-19T14:57:23.312Z,44.94
2023-02-19T14:59:56.112Z,44.53
2023-02-19T15:02:26.311Z,44.80
2023-02-19T15:04:57.796Z,45.03
2023-02-19T15:07:29.229Z,45.64
2023-02-19T15:10:04.904Z,46.29
2023-02-19T15:12:40.483Z,46.45
2023-02-19T15:15:09.384Z,46.89
2023-02-19T15:17:42.316Z,47.39
2023-02-19T15:20:16.490Z,47.55
2023-02-19T15:22:44.481Z,47.95
2023-02-19T15:25:21.351Z,48.46
2023-02-19T15:27:51.688Z,49.14
2023-02-19T15:30:23.276Z,49.71
2023-02-19T15:32:57.725Z,50.50
2023-02-19T15:35:34.810Z,50.55
2023-02-19T15:38:06.476Z,50.60
2023-02-19T15:40:38.119Z,51.85
2023-02-19T15:43:08.037Z,51.45
2023-02-19T15:45:46.944Z,52.01
2023-02-19T15:48:21.394Z,52.45
2023-02-19T15:51:08.556Z,52.36
2023-02-19T15:53:42.107Z,52.15
2023-02-19T15:56:13.374Z,53.00
2023-02-19T15:58:48.016Z,53.05
2023-02-19T16:01:20.876Z,52.50
2023-02-19T16:03:50.674Z,53.35
2023-02-19T16:06:19.420Z,53.44
2023-02-19T16:09:02.158Z,54.61
2023-02-19T16:11:39.405Z,54.99
2023-02-19T16:14:24.798Z,55.71
2023-02-19T16:16:56.664Z,56.10
2023-02-19T16:19:28.720Z,56.69
2023-02-19T16:22:02.942Z,57.05
2023-02-19T16:24:35.167Z,57.30
2023-02-19T16:27:05.225Z,57.62
2023-02-19T16:29:34.788Z,58.13
2023-02-19T16:32:06.081Z,58.50
2023-02-19T16:34:42.911Z,58.68
2023-02-19T16:37:37.472Z,58.62
2023-02-19T16:41:02.736Z,59.05
2023-02-19T16:43:39.712Z,59.05
2023-02-19T16:46:12.017Z,59.16
2023-02-19T16:48:40.217Z,59.44
2023-02-19T16:51:13.017Z,59.38
2023-02-19T16:53:43.954Z,58.85
2023-02-19T16:56:18.572Z,59.29
2023-02-19T16:58:46.465Z,58.90
2023-02-19T17:01:15.359Z,59.18
2023-02-19T17:03:45.652Z,59.05
2023-02-19T17:06:17.485Z,59.78
2023-02-19T17:08:48.312Z,59.45
2023-02-19T17:11:18.313Z,59.81
2023-02-19T17:13:47.948Z,59.08
2023-02-19T17:16:20.428Z,59.75
2023-02-19T17:18:50.379Z,60.63
2023-02-19T17:21:23.230Z,60.58
2023-02-19T17:23:51.334Z,61.24
2023-02-19T17:26:21.131Z,60.92
2023-02-19T17:28:51.507Z,60.83
2023-02-19T17:31:22.156Z,61.18
2023-02-19T17:33:54.449Z,61.36
2023-02-19T17:36:26.846Z,59.94
2023-02-19T17:38:55.151Z,60.54
2023-02-19T17:41:23.784Z,61.19
2023-02-19T17:43:52.919Z,61.30
2023-02-19T17:46:23.365Z,60.58
2023-02-19T17:48:53.168Z,60.71
2023-02-19T17:51:21.571Z,61.13
2023-02-19T17:53:50.842Z,61.57
2023-02-19T17:56:21.248Z,61.27
2023-02-19T17:58:49.175Z,60.74
2023-02-19T18:01:17.391Z,62.00
2023-02-19T18:03:48.300Z,62.06
2023-02-19T18:06:19.920Z,63.11
2023-02-19T18:08:51.337Z,62.55
2023-02-19T18:11:22.737Z,62.90
2023-02-19T18:13:54.834Z,62.94
2023-02-19T18:16:26.374Z,63.29
2023-02-19T18:18:55.107Z,63.73
2023-02-19T18:21:25.461Z,63.26
2023-02-19T18:23:55.232Z,63.62
2023-02-19T18:26:24.801Z,64.33
2023-02-19T18:29:18.873Z,63.96
2023-02-19T18:31:47.157Z,63.82
2023-02-19T18:34:19.140Z,64.29
2023-02-19T18:36:48.272Z,63.53
2023-02-19T18:39:19.749Z,63.18
2023-02-19T18:41:49.252Z,63.47
2023-02-19T18:44:36.508Z,64.39
2023-02-19T18:47:06.243Z,63.81
2023-02-19T18:49:34.792Z,64.56
2023-02-19T18:52:12.702Z,65.01
2023-02-19T18:54:52.840Z,65.09
2023-02-19T18:57:24.834Z,65.13
2023-02-19T18:59:57.156Z,65.84
2023-02-19T19:02:25.735Z,65.42
2023-02-19T19:04:57.588Z,65.50
2023-02-19T19:07:35.868Z,66.03
2023-02-19T19:10:06.442Z,66.64
2023-02-19T19:12:43.365Z,67.58
2023-02-19T19:15:27.311Z,67.65
2023-02-19T19:17:56.049Z,68.10
2023-02-19T19:20:26.724Z,68.92
2023-02-19T19:22:55.590Z,68.23
2023-02-19T19:25:28.312Z,69.63
2023-02-19T19:27:57.597Z,69.86
2023-02-19T19:30:26.087Z,69.86
2023-02-19T19:32:54.575Z,71.32
2023-02-19T19:35:26.156Z,71.29
2023-02-19T19:37:54.601Z,72.03
2023-02-19T19:40:24.229Z,72.05
2023-02-19T19:42:55.748Z,71.59
2023-02-19T19:45:24.191Z,71.43
2023-02-19T19:47:53.095Z,72.00
2023-02-19T19:50:21.993Z,71.34
2023-02-19T19:52:55.011Z,72.24
2023-02-19T19:55:24.377Z,71.64
2023-02-19T19:57:53.962Z,71.45
2023-02-19T20:00:25.403Z,71.59
2023-02-19T20:02:56.337Z,72.16
2023-02-19T20:05:28.757Z,72.23
2023-02-19T20:07:57.023Z,72.67
2023-02-19T20:10:26.323Z,72.08
2023-02-19T20:12:54.544Z,72.26
2023-02-19T20:15:25.196Z,72.89
2023-02-19T20:17:56.011Z,72.97
2023-02-19T20:20:24.383Z,73.87
2023-02-19T20:22:52.982Z,74.74
2023-02-19T20:25:22.398Z,75.14
2023-02-19T20:27:54.727Z,75.72
2023-02-19T20:30:24.700Z,76.87
2023-02-19T20:32:53.545Z,77.64
2023-02-19T20:35:22.046Z,77.77
2023-02-19T20:37:50.356Z,79.08
2023-02-19T20:40:19.300Z,79.88
2023-02-19T20:42:47.242Z,79.98
2023-02-19T20:45:17.852Z,80.44
2023-02-19T20:47:45.960Z,81.58
2023-02-19T20:50:13.887Z,81.30
2023-02-19T20:52:41.922Z,82.05
2023-02-19T20:55:10.796Z,82.84
2023-02-19T20:57:39.942Z,83.23
2023-02-19T21:00:10.641Z,83.85
2023-02-19T21:02:39.919Z,84.28
2023-02-19T21:05:09.512Z,84.94
2023-02-19T21:07:39.858Z,85.46
2023-02-19T21:10:09.244Z,85.59
2023-02-19T21:12:37.246Z,86.49
2023-02-19T21:15:05.772Z,86.77
2023-02-19T21:17:34.033Z,87.47
2023-02-19T21:20:03.307Z,88.28
2023-02-19T21:22:34.007Z,88.65
2023-02-19T21:25:02.130Z,88.94
2023-02-19T21:27:30.190Z,89.92
2023-02-19T21:30:00.887Z,90.40
2023-02-19T21:32:29.215Z,90.57
2023-02-19T21:34:57.193Z,91.02
2023-02-19T21:37:27.039Z,91.16
2023-02-19T21:40:02.114Z,91.42
2023-02-19T21:42:33.564Z,91.41
2023-02-19T21:45:01.783Z,91.89
2023-02-19T21:47:29.849Z,92.17
2023-02-19T21:49:59.314Z,92.36
2023-02-19T21:52:28.929Z,93.18
2023-02-19T21:54:56.826Z,93.72
2023-02-19T21:57:25.081Z,94.48
2023-02-19T21:59:53.514Z,94.93
2023-02-19T22:02:22.199Z,94.99
2023-02-19T22:04:58.311Z,95.54
2023-02-19T22:07:28.440Z,96.50
2023-02-19T22:09:56.618Z,96.56
2023-02-19T22:12:25.007Z,96.78
2023-02-19T22:14:53.104Z,97.77
2023-02-19T22:17:21.359Z,97.24
2023-02-19T22:19:49.593Z,97.88
2023-02-19T22:22:18.037Z,98.24
2023-02-19T22:24:50.405Z,99.04
2023-02-19T22:27:18.643Z,99.26
2023-02-19T22:29:46.918Z,100.00
2023-02-19T22:32:15.358Z,100.00
2023-02-19T22:34:43.975Z,100.00
2023-02-19T22:37:12.059Z,100.00
2023-02-19T22:39:40.335Z,100.00
2023-02-19T22:42:09.856Z,100.00
2023-02-19T22:44:38.444Z,100.00
2023-02-19T22:47:06.759Z,100.00
2023-02-19T22:49:34.908Z,100.00
2023-02-19T22:52:07.603Z,100.00
2023-02-19T22:54:36.348Z,100.00
2023-02-19T22:57:05.122Z,100.00
2023-02-19T22:59:34.776Z,100.00
2023-02-19T23:02:02.888Z,100.00
2023-02-19T23:04:31.494Z,100.00
2023-02-19T23:06:59.572Z,100.00
2023-02-19T23:09:32.074Z,100.00
2023-02-19T23:12:04.851Z,100.00
2023-02-19T23:14:34.961Z,100.00
2023-02-19T23:17:03.186Z,100.00
2023-02-19T23:19:31.427Z,100.00
2023-02-19T23:22:01.208Z,100.00
2023-02-19T23:24:29.475Z,100.00
2023-02-19T23:26:59.723Z,100.00
2023-02-19T23:29:29.739Z,100.00
2023-02-19T23:32:00.430Z,100.00
2023-02-19T23:34:30.484Z,100.00
2023-02-19T23:36:59.703Z,100.00
2023-02-19T23:39:27.982Z,100.00
2023-02-19T23:41:58.064Z,100.00
2023-02-19T23:44:27.167Z,100.00
2023-02-19T23:46:55.347Z,100.00
2023-02-19T23:49:27.555Z,100.00
2023-02-19T23:51:56.845Z,100.00
2023-02-19T23:54:25.975Z,100.00
2023-02-19T23:56:54.208Z,100.00
2023-02-19T23:59:22.443Z,100.00
